Time;durP1;ratioP1;P1;durP2;ratioP2;P2;SDS_P1;SDS_P2;PMS_P1;PMS_P2;Temp;Humidity;BMP_temperature;BMP_pressure;BME280_temperature;BME280_humidity;BME280_pressure;Samples;Min_cycle;Max_cycle;Signal;HPM_P1;HPM_P2
2022/12/15 00:39:39;;;;;;;7.80;5.60;;;;;;;4.21;89.44;100382.72;105475;1295;60505;-71
2022/12/15 00:42:09;;;;;;;8.10;5.50;;;;;;;4.23;89.57;100379.86;105470;1299;63006;-70
2022/12/15 00:44:37;;;;;;;8.10;5.50;;;;;;;4.31;89.66;100377.23;105425;1289;71552;-70
2022/12/15 00:47:06;;;;;;;6.50;5.40;;;;;;;4.35;89.70;100376.88;105309;1292;60505;-70
2022/12/15 01:20:17;;;;;;;6.40;4.10;;;;;;;4.53;89.33;100382.80;105530;1295;60026;-72
2022/12/15 01:22:52;;;;;;;8.10;5.20;;;;;;;4.55;89.23;100382.19;105515;1288;63442;-72
2022/12/15 01:25:24;;;;;;;7.00;5.00;;;;;;;4.57;89.26;100384.36;105651;1286;57813;-72
2022/12/15 01:27:54;;;;;;;6.70;4.80;;;;;;;4.61;89.18;100386.73;105220;1293;58325;-72
2022/12/15 01:30:25;;;;;;;7.60;4.60;;;;;;;4.63;90.08;100377.65;105095;1293;74589;-72
2022/12/15 01:32:54;;;;;;;6.80;5.10;;;;;;;4.60;89.31;100374.49;105386;1289;61050;-72
2022/12/15 01:35:23;;;;;;;6.90;4.50;;;;;;;4.63;89.65;100368.17;105513;1292;70620;-72
2022/12/15 01:37:51;;;;;;;8.20;5.10;;;;;;;4.65;89.40;100374.59;104488;1288;1354431;-73
2022/12/15 01:43:22;;;;;;;9.00;5.40;;;;;;;4.68;89.69;100355.80;105258;1298;58249;-72
2022/12/15 01:46:22;;;;;;;7.50;5.40;;;;;;;4.68;89.78;100357.17;105495;1294;63955;-71
2022/12/15 01:49:01;;;;;;;7.50;4.50;;;;;;;4.70;90.00;100345.17;105646;1286;71251;-70
2022/12/15 01:51:38;;;;;;;7.30;5.20;;;;;;;4.72;90.27;100345.42;105360;1294;70546;-72
2022/12/15 01:54:31;;;;;;;7.60;5.20;;;;;;;4.74;90.25;100339.95;105347;1292;62717;-71
2022/12/15 01:57:07;;;;;;;7.70;5.40;;;;;;;4.70;90.24;100340.31;105361;1295;57841;-71
2022/12/15 01:59:50;;;;;;;6.90;4.90;;;;;;;4.68;90.38;100339.60;105453;1292;57786;-71
2022/12/15 02:02:23;;;;;;;7.20;4.80;;;;;;;4.73;91.08;100334.98;105209;1298;63850;-71
2022/12/15 02:04:56;;;;;;;8.80;5.20;;;;;;;4.76;90.96;100333.30;105587;1278;71807;-69
2022/12/15 02:07:26;;;;;;;6.80;4.90;;;;;;;4.71;91.08;100321.64;105516;1287;60434;-71
2022/12/15 02:09:59;;;;;;;7.40;4.90;;;;;;;4.69;91.13;100313.85;105325;1298;62685;-70
2022/12/15 02:12:28;;;;;;;7.30;5.10;;;;;;;4.70;91.72;100309.14;105492;1283;58357;-70
2022/12/15 02:15:35;;;;;;;9.10;5.50;;;;;;;4.69;92.21;100309.88;105475;1292;58300;-70
2022/12/15 02:18:21;;;;;;;7.20;4.50;;;;;;;4.66;92.03;100310.02;105058;1294;74392;-71
2022/12/15 02:21:24;;;;;;;8.40;4.30;;;;;;;4.67;92.30;100307.24;105450;1289;61312;-70
2022/12/15 02:24:09;;;;;;;7.50;4.90;;;;;;;4.73;91.61;100309.64;105474;1291;70509;-72
2022/12/15 02:26:53;;;;;;;9.60;4.90;;;;;;;4.76;92.04;100299.14;105486;1289;71845;-70
2022/12/15 02:29:46;;;;;;;7.00;4.80;;;;;;;4.77;92.20;100298.19;105337;1291;58253;-70
2022/12/15 02:32:30;;;;;;;9.60;4.50;;;;;;;4.76;92.52;100306.87;105472;1292;60510;-70
2022/12/15 02:35:20;;;;;;;7.40;3.90;;;;;;;4.76;92.19;100295.33;105317;1291;64257;-73
2022/12/15 02:37:49;;;;;;;5.90;3.80;;;;;;;4.77;91.57;100289.24;105485;1287;72428;-71
2022/12/15 02:40:18;;;;;;;6.20;4.50;;;;;;;4.82;92.09;100293.64;105349;1292;70878;-71
2022/12/15 02:42:56;;;;;;;6.30;4.50;;;;;;;4.82;91.53;100296.92;105313;1295;72093;-72
2022/12/15 02:45:51;;;;;;;6.60;4.30;;;;;;;4.88;91.42;100292.59;105499;1291;62198;-71
2022/12/15 02:48:40;;;;;;;7.70;4.40;;;;;;;4.87;90.98;100285.59;105312;1298;61080;-71
2022/12/15 02:51:48;;;;;;;9.80;4.90;;;;;;;4.91;91.77;100285.21;105465;1289;74411;-71
2022/12/15 02:55:01;;;;;;;6.80;4.20;;;;;;;4.90;91.03;100283.02;105483;1290;61786;-72
2022/12/15 02:58:13;;;;;;;7.30;4.20;;;;;;;4.95;90.65;100274.43;105479;1289;60157;-71
2022/12/15 03:01:08;;;;;;;5.70;3.90;;;;;;;4.95;91.05;100273.73;105461;1291;63221;-71
2022/12/15 03:03:38;;;;;;;6.00;4.00;;;;;;;4.96;90.76;100273.68;105079;1292;62177;-71
2022/12/15 03:06:08;;;;;;;9.10;4.40;;;;;;;4.95;90.58;100280.83;105206;1298;61187;-71
2022/12/15 03:08:37;;;;;;;7.50;4.00;;;;;;;4.95;90.64;100276.51;105363;1291;62870;-70
2022/12/15 03:11:06;;;;;;;8.00;4.40;;;;;;;4.98;89.95;100280.30;105636;1290;71724;-72
2022/12/15 03:13:34;;;;;;;7.70;3.80;;;;;;;4.98;90.67;100278.21;105531;1291;69718;-73
2022/12/15 03:16:03;;;;;;;5.40;3.40;;;;;;;5.07;90.19;100283.60;105370;1288;63885;-72
2022/12/15 03:18:32;;;;;;;6.20;3.40;;;;;;;5.01;90.10;100277.70;105510;1298;58374;-73
2022/12/15 03:21:01;;;;;;;5.50;3.50;;;;;;;5.04;90.53;100279.46;105335;1293;60476;-73
2022/12/15 03:23:32;;;;;;;4.90;3.10;;;;;;;5.07;89.87;100273.44;105359;1286;74410;-73
2022/12/15 03:26:01;;;;;;;4.60;3.30;;;;;;;5.04;89.40;100262.71;105654;1286;72659;-72
2022/12/15 03:28:30;;;;;;;6.60;4.10;;;;;;;5.05;89.86;100262.31;105497;1299;59214;-72
2022/12/15 03:30:59;;;;;;;6.20;3.60;;;;;;;5.06;89.91;100268.66;105376;1295;63542;-72
2022/12/15 03:33:28;;;;;;;6.50;4.00;;;;;;;5.07;89.75;100269.27;105495;1297;62884;-72
2022/12/15 03:35:57;;;;;;;6.30;4.00;;;;;;;5.09;89.49;100258.63;105524;1290;57793;-70
2022/12/15 03:38:26;;;;;;;12.50;4.50;;;;;;;5.20;88.51;100261.14;105542;1293;73538;-72
2022/12/15 03:40:54;;;;;;;5.40;4.10;;;;;;;5.21;89.14;100260.35;105665;1287;72161;-72
2022/12/15 03:43:23;;;;;;;10.20;8.10;;;;;;;5.17;89.08;100254.08;105461;1298;59188;-73
2022/12/15 03:45:52;;;;;;;15.10;10.10;;;;;;;5.18;89.25;100252.44;105520;1291;62574;-73
2022/12/15 03:48:21;;;;;;;7.10;4.70;;;;;;;5.23;88.94;100250.98;105373;1288;57795;-73
2022/12/15 03:50:50;;;;;;;10.20;5.80;;;;;;;5.23;88.34;100251.11;105540;1293;61171;-73
2022/12/15 03:53:19;;;;;;;17.10;14.60;;;;;;;5.18;88.53;100253.10;105550;1289;75031;-74
2022/12/15 03:55:47;;;;;;;7.70;4.70;;;;;;;5.22;88.62;100256.70;105684;1286;72051;-73
2022/12/15 03:58:16;;;;;;;6.20;4.00;;;;;;;5.26;88.63;100257.13;105247;1295;59815;-74
2022/12/15 04:00:45;;;;;;;7.30;4.50;;;;;;;5.27;88.37;100255.02;105516;1287;74022;-74
2022/12/15 04:03:13;;;;;;;6.40;4.00;;;;;;;5.30;88.80;100252.77;105525;1288;57710;-75
2022/12/15 04:05:42;;;;;;;6.50;2.90;;;;;;;5.32;88.85;100250.77;105573;1293;58237;-73
2022/12/15 04:08:11;;;;;;;6.40;4.30;;;;;;;5.29;89.27;100245.43;105554;1286;63944;-73
2022/12/15 04:10:40;;;;;;;6.00;3.00;;;;;;;5.30;89.63;100240.49;105688;1290;61889;-73
2022/12/15 04:13:10;;;;;;;7.40;3.50;;;;;;;5.35;90.32;100243.36;105545;1293;69991;-70
2022/12/15 04:15:39;;;;;;;6.40;3.30;;;;;;;5.40;90.39;100242.20;105236;1295;62836;-73
2022/12/15 04:18:10;;;;;;;5.30;3.40;;;;;;;5.36;90.09;100239.63;105511;1291;57873;-72
2022/12/15 04:20:39;;;;;;;6.30;3.40;;;;;;;5.36;91.02;100243.42;105256;1299;60655;-71
2022/12/15 04:23:08;;;;;;;4.80;3.30;;;;;;;5.37;91.01;100240.27;105262;1286;73534;-71
2022/12/15 05:32:48;;;;;;;9.50;4.10;;;;;;;5.69;96.16;100248.12;105459;1291;72209;-71
2022/12/15 05:35:17;;;;;;;9.60;3.90;;;;;;;5.66;97.16;100248.44;105492;1283;59756;-71
2022/12/15 05:37:46;;;;;;;8.70;4.60;;;;;;;5.61;96.99;100248.86;105316;1287;63432;-71
2022/12/15 05:40:15;;;;;;;6.80;4.10;;;;;;;5.63;96.66;100246.89;105492;1291;62167;-70
2022/12/15 05:42:43;;;;;;;7.80;3.70;;;;;;;5.66;97.22;100245.48;105315;1299;61004;-70
2022/12/15 05:45:17;;;;;;;5.40;3.90;;;;;;;5.64;97.35;100245.94;105188;1289;66495;-71
2022/12/15 05:47:53;;;;;;;8.20;4.60;;;;;;;5.64;98.22;100248.23;105592;1290;60859;-72
2022/12/15 05:50:22;;;;;;;12.60;4.20;;;;;;;5.69;99.19;100249.80;105229;1293;69431;-72
2022/12/15 05:52:51;;;;;;;6.90;4.10;;;;;;;5.69;99.21;100249.61;105064;1299;63127;-71
2022/12/15 05:55:20;;;;;;;26.60;5.90;;;;;;;5.73;99.51;100247.98;105328;1293;57729;-73
2022/12/15 05:57:53;;;;;;;11.00;4.90;;;;;;;5.82;99.88;100258.84;105266;1292;60392;-73
2022/12/15 06:00:22;;;;;;;5.80;3.90;;;;;;;5.79;99.71;100258.71;105169;1294;74293;-71
2022/12/15 06:02:50;;;;;;;7.20;4.70;;;;;;;5.84;100.00;100260.67;105401;1286;71976;-73
2022/12/15 06:05:19;;;;;;;10.10;4.30;;;;;;;5.81;100.00;100260.48;105305;1293;70536;-72
2022/12/15 06:07:48;;;;;;;9.70;3.90;;;;;;;5.78;100.00;100260.17;105380;1292;63294;-72
2022/12/15 06:10:16;;;;;;;7.50;4.00;;;;;;;5.75;100.00;100257.36;105372;1289;62237;-72
2022/12/15 06:12:45;;;;;;;22.10;4.70;;;;;;;5.76;100.00;100257.66;105601;1290;57668;-71
2022/12/15 06:15:15;;;;;;;11.80;4.70;;;;;;;5.79;100.00;100259.05;105493;1292;63688;-72
2022/12/15 06:17:43;;;;;;;15.00;5.30;;;;;;;5.74;100.00;100259.89;105619;1287;71543;-72
2022/12/15 06:20:16;;;;;;;10.00;4.30;;;;;;;5.76;100.00;100261.45;105504;1295;70597;-72
2022/12/15 06:22:45;;;;;;;13.50;6.10;;;;;;;5.76;100.00;100265.61;105474;1295;63623;-71
2022/12/15 06:25:17;;;;;;;7.30;3.90;;;;;;;5.80;99.95;100268.98;105452;1286;57817;-74
2022/12/15 06:27:46;;;;;;;10.80;4.00;;;;;;;5.77;99.95;100269.50;105496;1299;57696;-72
2022/12/15 06:30:15;;;;;;;14.30;5.30;;;;;;;5.81;100.00;100269.66;105493;1297;74509;-72
2022/12/15 06:32:43;;;;;;;9.70;4.20;;;;;;;5.85;100.00;100273.52;105493;1287;71902;-71
2022/12/15 06:35:17;;;;;;;8.40;4.50;;;;;;;5.85;100.00;100269.25;105480;1291;70396;-72
2022/12/15 06:37:45;;;;;;;16.20;4.20;;;;;;;5.84;100.00;100270.85;105471;1292;74319;-73
2022/12/15 06:40:14;;;;;;;13.20;4.00;;;;;;;5.87;100.00;100277.08;105348;1292;58032;-73
2022/12/15 06:42:43;;;;;;;17.30;4.60;;;;;;;5.85;100.00;100284.27;105501;1291;57768;-73
2022/12/15 06:45:11;;;;;;;8.00;4.50;;;;;;;5.89;100.00;100291.16;105337;1286;74572;-73
2022/12/15 06:47:40;;;;;;;7.30;4.60;;;;;;;5.90;100.00;100293.52;105647;1295;62151;-73
2022/12/15 06:50:09;;;;;;;16.20;4.40;;;;;;;5.89;100.00;100288.90;105527;1295;68222;-72
2022/12/15 06:52:38;;;;;;;11.30;4.40;;;;;;;5.94;100.00;100292.26;105398;1292;74058;-72
2022/12/15 06:55:07;;;;;;;7.60;3.90;;;;;;;5.96;99.95;100295.42;105554;1292;62111;-72
2022/12/15 06:57:37;;;;;;;10.50;4.40;;;;;;;6.02;99.95;100295.35;105556;1295;57711;-74
2022/12/15 07:00:07;;;;;;;8.30;4.40;;;;;;;6.04;99.52;100292.29;105374;1293;63186;-74
2022/12/15 07:02:36;;;;;;;13.40;5.10;;;;;;;6.07;98.95;100287.84;105462;1290;60885;-72
2022/12/15 07:05:05;;;;;;;15.90;4.80;;;;;;;6.14;99.55;100291.19;105542;1286;68766;-72
2022/12/15 07:07:34;;;;;;;7.50;4.80;;;;;;;6.18;98.88;100286.15;105541;1291;63456;-73
2022/12/15 07:10:03;;;;;;;9.50;4.20;;;;;;;6.18;98.12;100287.70;105387;1295;62293;-73
2022/12/15 07:12:32;;;;;;;9.80;4.40;;;;;;;6.18;97.70;100281.62;105536;1284;59639;-72
2022/12/15 07:15:01;;;;;;;7.80;4.40;;;;;;;6.15;98.03;100277.84;105560;1290;73828;-72
2022/12/15 07:17:30;;;;;;;7.50;4.60;;;;;;;6.20;97.73;100278.90;105502;1290;62193;-73
2022/12/15 07:19:59;;;;;;;9.20;4.00;;;;;;;6.19;98.02;100275.18;105417;1295;60085;-72
2022/12/15 07:22:28;;;;;;;10.20;4.10;;;;;;;6.22;97.32;100277.04;105531;1286;73993;-71
2022/12/15 07:24:56;;;;;;;9.60;4.10;;;;;;;6.20;97.68;100275.80;105521;1288;57772;-73
2022/12/15 07:27:25;;;;;;;9.30;4.20;;;;;;;6.27;98.22;100279.85;105522;1299;58230;-73
2022/12/15 07:29:54;;;;;;;8.40;4.10;;;;;;;6.38;97.98;100283.00;105427;1286;63951;-73
2022/12/15 07:32:23;;;;;;;10.80;5.20;;;;;;;6.34;97.66;100281.33;105582;1289;60916;-73
2022/12/15 07:34:52;;;;;;;10.50;8.80;;;;;;;6.29;97.14;100277.85;105541;1292;69233;-73
2022/12/15 07:37:21;;;;;;;9.80;5.50;;;;;;;6.34;97.04;100280.30;105495;1295;74099;-74
2022/12/15 07:39:50;;;;;;;7.40;4.40;;;;;;;6.42;97.06;100282.04;105427;1296;58686;-73
2022/12/15 07:42:19;;;;;;;6.30;4.00;;;;;;;6.49;96.18;100283.67;105540;1292;59163;-74
2022/12/15 07:44:47;;;;;;;4.90;3.40;;;;;;;6.50;96.32;100285.52;105525;1292;73475;-73
2022/12/15 07:47:17;;;;;;;8.70;3.80;;;;;;;6.56;95.79;100286.54;105664;1286;60854;-75
2022/12/15 07:49:46;;;;;;;5.60;3.70;;;;;;;6.67;95.29;100284.98;105542;1291;60027;-73
2022/12/15 07:52:15;;;;;;;5.90;3.90;;;;;;;6.71;95.80;100286.61;105466;1291;73468;-73
2022/12/15 07:54:44;;;;;;;5.40;3.60;;;;;;;6.73;94.47;100295.87;105515;1288;58274;-72
2022/12/15 07:57:12;;;;;;;7.00;3.70;;;;;;;6.77;94.03;100299.79;105539;1294;60595;-72
2022/12/15 07:59:42;;;;;;;9.80;4.60;;;;;;;6.85;93.87;100300.83;105514;1291;73860;-71
2022/12/15 08:02:12;;;;;;;6.50;4.00;;;;;;;6.78;94.16;100295.70;105656;1283;69901;-78
2022/12/15 08:04:41;;;;;;;8.30;4.20;;;;;;;6.81;94.36;100293.29;105172;1295;59384;-72
2022/12/15 08:07:10;;;;;;;6.60;3.60;;;;;;;6.83;93.86;100293.51;105568;1283;62665;-71
2022/12/15 08:09:39;;;;;;;5.20;3.10;;;;;;;6.88;93.69;100298.71;105406;1289;57742;-72
2022/12/15 08:12:08;;;;;;;8.30;4.10;;;;;;;6.94;93.77;100305.27;105560;1291;57788;-73
2022/12/15 08:14:36;;;;;;;6.10;3.70;;;;;;;7.05;93.63;100313.54;105533;1292;73725;-74
2022/12/15 08:17:05;;;;;;;10.20;3.90;;;;;;;7.03;93.26;100320.27;105659;1285;61678;-73
2022/12/15 08:19:34;;;;;;;6.20;4.20;;;;;;;7.06;93.25;100326.29;105387;1294;60113;-72
2022/12/15 08:22:03;;;;;;;7.20;3.40;;;;;;;7.10;93.15;100322.58;105526;1287;74089;-73
2022/12/15 08:24:31;;;;;;;5.70;3.60;;;;;;;7.09;92.94;100317.83;105516;1288;58302;-73
2022/12/15 08:27:00;;;;;;;5.80;3.30;;;;;;;7.16;93.01;100324.95;105508;1292;57715;-72
2022/12/15 08:29:28;;;;;;;6.20;3.20;;;;;;;7.23;92.53;100325.23;105511;1288;72729;-73
2022/12/15 08:32:19;;;;;;;7.20;3.90;;;;;;;7.24;92.23;100324.85;105462;1293;71094;-73
2022/12/15 08:34:48;;;;;;;9.20;3.70;;;;;;;7.20;92.21;100317.66;105377;1288;69993;-72
2022/12/15 08:37:17;;;;;;;7.10;3.70;;;;;;;7.26;91.73;100313.80;105365;1286;72377;-72
2022/12/15 08:39:46;;;;;;;6.50;3.60;;;;;;;7.34;91.55;100310.80;105537;1291;62298;-73
2022/12/15 08:42:21;;;;;;;7.80;3.80;;;;;;;7.48;91.90;100304.72;105447;1291;59985;-75
2022/12/15 08:44:51;;;;;;;8.40;3.50;;;;;;;7.41;91.00;100306.36;105244;1298;71831;-72
2022/12/15 08:47:19;;;;;;;7.30;3.80;;;;;;;7.48;90.83;100305.04;105384;1289;61719;-73
2022/12/15 08:49:49;;;;;;;10.20;3.60;;;;;;;7.54;90.20;100302.75;105623;1286;60194;-72
2022/12/15 08:52:17;;;;;;;7.70;3.90;;;;;;;7.68;90.09;100299.36;105470;1291;73200;-73
2022/12/15 08:54:49;;;;;;;7.90;3.60;;;;;;;7.55;89.40;100293.31;105200;1297;58326;-72
2022/12/15 08:57:18;;;;;;;6.30;3.20;;;;;;;7.62;89.09;100292.34;105424;1291;58234;-73
2022/12/15 08:59:47;;;;;;;9.40;4.70;;;;;;;7.84;89.49;100300.90;105373;1290;74515;-72
2022/12/15 09:02:19;;;;;;;8.10;4.50;;;;;;;7.92;88.40;100292.75;105502;1286;71413;-73
2022/12/15 09:04:49;;;;;;;11.70;3.50;;;;;;;7.95;88.52;100290.14;105353;1295;69798;-73
2022/12/15 09:07:19;;;;;;;6.10;3.90;;;;;;;7.98;87.89;100286.29;105358;1295;63627;-71
2022/12/15 09:09:48;;;;;;;10.30;4.20;;;;;;;8.01;88.03;100286.08;105215;1293;58255;-73
2022/12/15 09:12:18;;;;;;;9.90;4.40;;;;;;;8.23;88.87;100285.10;105351;1286;60529;-74
2022/12/15 09:14:47;;;;;;;7.40;3.90;;;;;;;8.31;87.81;100278.65;105342;1295;64260;-74
2022/12/15 09:17:16;;;;;;;8.70;4.00;;;;;;;8.20;87.82;100274.16;105498;1286;72392;-73
2022/12/15 09:19:45;;;;;;;6.60;3.70;;;;;;;8.06;87.20;100270.29;105371;1292;69946;-71
2022/12/15 09:22:13;;;;;;;7.90;3.90;;;;;;;8.12;86.90;100267.45;105216;1289;62620;-73
2022/12/15 09:24:42;;;;;;;8.00;4.30;;;;;;;8.10;87.17;100272.25;105207;1288;58279;-72
2022/12/15 09:27:11;;;;;;;9.90;4.50;;;;;;;8.14;87.17;100274.98;105331;1293;60563;-72
2022/12/15 09:29:40;;;;;;;7.60;4.30;;;;;;;8.12;87.74;100274.21;105338;1291;74626;-72
2022/12/15 09:32:08;;;;;;;8.20;4.90;;;;;;;8.14;87.52;100272.52;105275;1286;72216;-72
2022/12/15 09:34:41;;;;;;;;;;;;;;;8.32;87.76;100268.50;105408;1291;70469;-72
2022/12/15 09:37:10;;;;;;;8.70;3.90;;;;;;;8.24;87.17;100270.25;105366;1283;63192;-72
2022/12/15 09:39:39;;;;;;;5.20;3.50;;;;;;;8.30;86.46;100279.19;105518;1295;62172;-74
2022/12/15 09:42:26;;;;;;;6.80;3.60;;;;;;;8.25;86.37;100278.00;105372;1289;61698;-73
2022/12/15 09:45:20;;;;;;;10.90;5.80;;;;;;;8.06;87.14;100272.92;105382;1294;63945;-74
2022/12/15 09:47:57;;;;;;;;;;;;;;;8.07;88.82;100263.79;105384;1284;71474;-71
2022/12/15 09:50:40;;;;;;;10.20;3.90;;;;;;;8.06;88.06;100265.25;105227;1298;59262;-74
2022/12/15 09:53:13;;;;;;;6.60;4.00;;;;;;;8.15;88.20;100259.77;105239;1294;74067;-72
2022/12/15 09:56:19;;;;;;;10.00;5.80;;;;;;;8.19;88.12;100261.94;105264;1294;62322;-73
2022/12/15 09:59:04;;;;;;;7.80;5.70;;;;;;;8.08;88.71;100261.34;105245;1288;58340;-72
2022/12/15 10:01:51;;;;;;;7.80;5.70;;;;;;;8.10;88.90;100261.85;105226;1292;73147;-72
2022/12/15 10:05:11;;;;;;;12.30;6.30;;;;;;;8.06;88.87;100258.14;105436;1291;71822;-72
2022/12/15 10:07:45;;;;;;;11.30;7.60;;;;;;;8.06;89.81;100257.10;105345;1291;68777;-73
2022/12/15 10:10:41;;;;;;;15.10;8.80;;;;;;;8.12;90.42;100257.04;105369;1288;73856;-71
2022/12/15 10:13:44;;;;;;;15.70;8.80;;;;;;;8.30;89.69;100260.70;105298;1288;58228;-72
2022/12/15 10:16:34;;;;;;;13.60;7.30;;;;;;;8.30;89.49;100258.27;105237;1287;57759;-71
2022/12/15 10:19:25;;;;;;;11.70;7.40;;;;;;;8.44;88.52;100258.44;105285;1293;63128;-73
2022/12/15 10:21:56;;;;;;;11.80;7.50;;;;;;;8.60;87.57;100263.57;105504;1283;60987;-73
2022/12/15 10:24:29;;;;;;;12.60;7.90;;;;;;;8.57;87.99;100262.39;105314;1294;59630;-72
2022/12/15 10:27:43;;;;;;;10.50;6.30;;;;;;;8.66;87.21;100264.91;105341;1291;73305;-72
2022/12/15 10:30:13;;;;;;;16.90;5.90;;;;;;;8.47;87.58;100268.84;105494;1295;60675;-72
2022/12/15 10:33:01;;;;;;;11.80;6.10;;;;;;;8.46;87.64;100274.85;105333;1283;57767;-73
2022/12/15 10:35:34;;;;;;;15.10;6.40;;;;;;;8.47;87.30;100283.02;105466;1287;73753;-72
2022/12/15 10:38:13;;;;;;;11.90;6.40;;;;;;;8.62;87.62;100289.52;105612;1291;64044;-73
2022/12/15 10:41:06;;;;;;;11.70;6.60;;;;;;;8.79;89.60;100293.66;105409;1292;59019;-74
2022/12/15 10:43:39;;;;;;;13.60;6.40;;;;;;;8.99;87.30;100289.10;105373;1295;74009;-72
2022/12/15 10:46:17;;;;;;;7.70;5.30;;;;;;;9.13;86.17;100280.46;105489;1295;63015;-73
2022/12/15 10:48:50;;;;;;;12.30;6.40;;;;;;;9.26;84.94;100286.44;105503;1289;58323;-73
2022/12/15 10:51:29;;;;;;;18.10;6.80;;;;;;;9.37;84.97;100292.36;105335;1295;73775;-73
2022/12/15 10:54:10;;;;;;;8.40;6.30;;;;;;;9.33;83.92;100286.23;105644;1284;61767;-75
2022/12/15 10:56:51;;;;;;;11.70;7.20;;;;;;;9.21;83.92;100279.83;105546;1285;69713;-73
2022/12/15 10:59:37;;;;;;;11.00;6.70;;;;;;;9.41;83.73;100283.05;105223;1299;73076;-73
2022/12/15 11:02:35;;;;;;;11.00;7.00;;;;;;;9.68;82.18;100286.07;105354;1293;62509;-74
2022/12/15 11:05:14;;;;;;;10.80;7.00;;;;;;;9.55;81.61;100287.44;105377;1292;61247;-73
2022/12/15 11:07:53;;;;;;;9.40;6.10;;;;;;;10.03;83.61;100291.96;105381;1288;74421;-73
2022/12/15 11:13:21;;;;;;;9.40;5.70;;;;;;;10.44;77.90;100294.22;105399;1294;68873;-74
2022/12/15 11:15:52;;;;;;;9.00;5.80;;;;;;;10.12;77.61;100294.52;105213;1295;72127;-73
2022/12/15 11:18:43;;;;;;;6.70;4.40;;;;;;;10.46;78.64;100300.45;105267;1283;57761;-73
2022/12/15 11:21:38;;;;;;;5.50;3.60;;;;;;;10.74;76.51;100304.20;105383;1288;58251;-73
2022/12/15 11:24:16;;;;;;;6.40;4.10;;;;;;;10.95;76.85;100301.61;105405;1289;73241;-73
2022/12/15 11:26:50;;;;;;;5.30;3.30;;;;;;;11.38;76.02;100308.04;105512;1283;61659;-75
2022/12/15 11:29:48;;;;;;;;;;;;;;;11.94;75.50;100312.14;105562;1286;59312;-75
2022/12/15 11:32:24;;;;;;;5.00;3.20;;;;;;;11.66;71.33;100318.08;105579;1294;62653;-75
2022/12/15 11:34:52;;;;;;;4.80;2.90;;;;;;;11.38;70.61;100316.60;105401;1299;57784;-74
2022/12/15 11:37:39;;;;;;;4.60;2.80;;;;;;;11.48;70.83;100321.70;105557;1291;60661;-74
2022/12/15 11:40:39;;;;;;;4.10;2.50;;;;;;;11.28;72.19;100316.05;105352;1298;73787;-72
2022/12/15 11:43:33;;;;;;;5.40;3.50;;;;;;;11.38;72.29;100322.00;105612;1285;73113;-73
2022/12/15 11:46:50;;;;;;;5.70;3.50;;;;;;;11.12;71.14;100321.04;105482;1288;59564;-73
2022/12/15 11:49:43;;;;;;;5.20;3.20;;;;;;;11.41;70.78;100310.95;105363;1297;62849;-73
2022/12/15 11:52:56;;;;;;;13.60;4.50;;;;;;;11.68;71.00;100311.88;105392;1291;61457;-73
2022/12/15 11:56:08;;;;;;;34.70;6.70;;;;;;;11.51;71.11;100311.20;105361;1291;58280;-73
2022/12/15 11:58:53;;;;;;;11.20;4.60;;;;;;;11.64;71.11;100307.52;105338;1288;63929;-73
2022/12/15 12:02:11;;;;;;;6.30;4.30;;;;;;;11.52;69.80;100318.08;105538;1288;72259;-73
2022/12/15 12:05:19;;;;;;;11.10;3.90;;;;;;;11.76;68.40;100334.03;105371;1291;59722;-73
2022/12/15 12:08:06;;;;;;;4.10;3.30;;;;;;;11.90;67.83;100336.80;105411;1287;63511;-73
2022/12/15 12:11:02;;;;;;;5.80;4.20;;;;;;;12.01;67.45;100339.48;105333;1288;57768;-72
2022/12/15 12:14:05;;;;;;;13.60;4.70;;;;;;;12.69;68.08;100337.34;105382;1291;61519;-74
2022/12/15 12:17:22;;;;;;;6.60;4.10;;;;;;;12.85;66.72;100343.45;105273;1293;63128;-73
2022/12/15 12:19:58;;;;;;;8.70;3.40;;;;;;;13.25;64.22;100349.91;105306;1289;63168;-73
2022/12/15 12:22:34;;;;;;;10.30;3.80;;;;;;;13.81;61.73;100354.13;105233;1294;60151;-74
2022/12/15 12:25:17;;;;;;;18.80;4.40;;;;;;;13.72;61.76;100365.63;105444;1291;62641;-73
2022/12/15 12:27:57;;;;;;;18.60;4.90;;;;;;;14.02;60.40;100372.96;105421;1288;58367;-72
2022/12/15 12:30:43;;;;;;;6.20;4.20;;;;;;;14.00;60.83;100380.19;105367;1284;57717;-73
2022/12/15 12:33:28;;;;;;;6.70;4.00;;;;;;;14.25;61.23;100387.35;105361;1294;63708;-73
2022/12/15 12:36:04;;;;;;;10.60;4.30;;;;;;;14.35;59.41;100391.48;105600;1287;61075;-74
2022/12/15 12:38:40;;;;;;;22.90;6.00;;;;;;;14.64;58.91;100395.50;105274;1294;59355;-73
2022/12/15 12:41:35;;;;;;;6.20;3.50;;;;;;;15.08;59.95;100399.31;105346;1288;74150;-73
2022/12/15 12:44:32;;;;;;;4.30;3.10;;;;;;;15.76;56.82;100401.45;105415;1294;57799;-75
2022/12/15 12:47:34;;;;;;;4.00;2.60;;;;;;;15.56;55.69;100403.77;105423;1289;57816;-75
2022/12/15 12:50:20;;;;;;;4.90;3.40;;;;;;;15.30;56.58;100409.30;105465;1289;64014;-74
2022/12/15 12:52:56;;;;;;;10.80;4.40;;;;;;;14.63;56.20;100414.09;105177;1291;72390;-74
2022/12/15 12:55:40;;;;;;;6.80;4.20;;;;;;;13.82;58.10;100412.64;105472;1286;60057;-73
2022/12/15 12:58:40;;;;;;;5.10;3.80;;;;;;;13.82;58.29;100414.74;105363;1288;62721;-74
2022/12/15 13:01:24;;;;;;;5.10;3.40;;;;;;;14.43;58.96;100419.48;105348;1288;61430;-75
2022/12/15 13:04:39;;;;;;;11.30;6.80;;;;;;;14.53;57.30;100426.92;105426;1283;57784;-73
2022/12/15 13:07:33;;;;;;;7.00;3.60;;;;;;;14.60;56.29;100431.37;104760;1303;74655;-73
2022/12/15 13:10:08;;;;;;;5.40;3.30;;;;;;;15.07;56.87;100436.92;104759;1298;62218;-72
2022/12/15 13:12:59;;;;;;;10.60;4.20;;;;;;;15.08;55.27;100436.48;105232;1291;70749;-74
2022/12/15 13:15:47;;;;;;;9.30;4.30;;;;;;;14.15;58.01;100442.23;105352;1292;74300;-74
2022/12/15 13:18:26;;;;;;;4.40;2.70;;;;;;;15.10;56.91;100442.29;105370;1291;60799;-73
2022/12/15 13:20:56;;;;;;;21.30;5.80;;;;;;;15.25;56.13;100448.69;105448;1294;61118;-74
2022/12/15 13:23:26;;;;;;;14.30;4.50;;;;;;;15.02;57.61;100452.85;105259;1297;72189;-74
2022/12/15 13:25:58;;;;;;;6.90;3.70;;;;;;;14.98;58.26;100449.70;105630;1282;70657;-73
2022/12/15 13:28:37;;;;;;;50.30;10.40;;;;;;;14.53;58.09;100451.46;105489;1292;68440;-74
2022/12/15 13:31:15;;;;;;;51.10;9.20;;;;;;;13.87;61.53;100455.27;105487;1291;63393;-74
2022/12/15 13:33:52;;;;;;;36.60;9.40;;;;;;;13.80;64.41;100464.92;105616;1286;61545;-72
2022/12/15 13:36:36;;;;;;;11.50;6.80;;;;;;;13.66;65.02;100468.15;104484;1291;1377173;-74
2022/12/15 13:39:11;;;;;;;64.40;11.30;;;;;;;14.00;62.99;100460.59;105465;1284;63451;-74
2022/12/15 13:41:40;;;;;;;46.10;9.30;;;;;;;14.12;64.44;100460.21;105625;1283;71611;-73
2022/12/15 13:44:30;;;;;;;38.10;9.60;;;;;;;14.16;63.93;100465.92;105409;1288;59818;-77
2022/12/15 13:47:15;;;;;;;38.40;10.90;;;;;;;14.01;65.30;100467.13;105494;1286;62582;-73
2022/12/15 13:49:55;;;;;;;19.30;7.70;;;;;;;14.01;63.42;100470.94;105352;1298;61206;-73
2022/12/15 13:52:55;;;;;;;13.20;7.80;;;;;;;13.64;65.77;100479.88;105318;1295;60447;-75
2022/12/15 13:56:23;;;;;;;9.90;6.90;;;;;;;13.28;64.59;100494.92;105222;1284;75016;-74
2022/12/15 13:59:12;;;;;;;11.00;6.90;;;;;;;13.13;65.34;100500.63;105610;1282;71473;-75
2022/12/15 14:01:50;;;;;;;10.10;7.10;;;;;;;13.11;64.35;100509.02;105321;1289;69290;-72
2022/12/15 14:04:20;;;;;;;9.40;6.50;;;;;;;12.68;65.85;100525.03;105385;1286;73960;-73
2022/12/15 14:06:59;;;;;;;10.90;6.40;;;;;;;12.16;67.73;100530.92;105030;1292;61415;-73
2022/12/15 14:09:33;;;;;;;11.90;6.80;;;;;;;11.33;70.55;100535.66;105500;1286;61344;-74
2022/12/15 14:12:05;;;;;;;10.90;7.40;;;;;;;10.98;72.45;100541.27;105494;1286;72612;-73
2022/12/15 14:14:41;;;;;;;11.90;7.30;;;;;;;10.47;74.29;100543.44;105497;1285;72783;-73
2022/12/15 14:17:14;;;;;;;10.40;7.60;;;;;;;9.99;77.29;100545.89;105457;1296;59109;-73
2022/12/15 14:19:47;;;;;;;15.50;7.90;;;;;;;9.71;76.13;100547.91;105457;1289;63508;-74
2022/12/15 14:22:23;;;;;;;11.10;8.30;;;;;;;9.40;79.17;100548.67;105715;1280;58288;-73
2022/12/15 14:25:18;;;;;;;12.10;8.10;;;;;;;9.13;81.09;100558.26;105335;1288;61406;-72
2022/12/15 14:27:48;;;;;;;55.90;12.90;;;;;;;8.91;85.67;100571.58;105386;1292;62967;-72